sensor_id;sensor_type;location;lat;lon;timestamp;P1;durP1;ratioP1;P2;durP2;ratioP2
64795;SDS011;51229;51.980;6.722;2022-12-26T00:02:12;26.42;;;10.30;;
64795;SDS011;51229;51.980;6.722;2022-12-26T00:04:38;31.08;;;10.40;;
64795;SDS011;51229;51.980;6.722;2022-12-26T00:07:04;24.77;;;9.38;;
64795;SDS011;51229;51.980;6.722;2022-12-26T00:09:31;25.85;;;10.38;;
64795;SDS011;51229;51.980;6.722;2022-12-26T00:11:57;31.17;;;10.65;;
64795;SDS011;51229;51.980;6.722;2022-12-26T00:14:23;26.25;;;9.73;;
64795;SDS011;51229;51.980;6.722;2022-12-26T00:16:48;28.05;;;11.05;;
64795;SDS011;51229;51.980;6.722;2022-12-26T00:19:14;30.45;;;11.20;;
64795;SDS011;51229;51.980;6.722;2022-12-26T00:21:40;29.10;;;11.52;;
64795;SDS011;51229;51.980;6.722;2022-12-26T00:24:06;34.08;;;12.05;;
64795;SDS011;51229;51.980;6.722;2022-12-26T00:26:33;28.63;;;11.10;;
64795;SDS011;51229;51.980;6.722;2022-12-26T00:29:00;33.00;;;11.57;;
64795;SDS011;51229;51.980;6.722;2022-12-26T00:31:27;30.70;;;12.00;;
64795;SDS011;51229;51.980;6.722;2022-12-26T00:33:54;34.30;;;12.23;;
64795;SDS011;51229;51.980;6.722;2022-12-26T00:36:21;36.28;;;13.82;;
64795;SDS011;51229;51.980;6.722;2022-12-26T00:38:48;33.63;;;12.48;;
64795;SDS011;51229;51.980;6.722;2022-12-26T00:41:15;29.20;;;11.00;;
64795;SDS011;51229;51.980;6.722;2022-12-26T00:43:42;36.42;;;12.93;;
64795;SDS011;51229;51.980;6.722;2022-12-26T00:46:07;28.52;;;11.38;;
64795;SDS011;51229;51.980;6.722;2022-12-26T00:48:33;31.75;;;11.80;;
64795;SDS011;51229;51.980;6.722;2022-12-26T00:50:59;31.20;;;11.57;;
64795;SDS011;51229;51.980;6.722;2022-12-26T00:53:25;32.20;;;12.38;;
64795;SDS011;51229;51.980;6.722;2022-12-26T00:55:52;35.97;;;12.05;;
64795;SDS011;51229;51.980;6.722;2022-12-26T00:58:18;30.63;;;12.60;;
64795;SDS011;51229;51.980;6.722;2022-12-26T01:00:44;32.88;;;11.95;;
64795;SDS011;51229;51.980;6.722;2022-12-26T01:03:11;32.58;;;12.82;;
64795;SDS011;51229;51.980;6.722;2022-12-26T01:05:44;28.60;;;11.43;;
64795;SDS011;51229;51.980;6.722;2022-12-26T01:08:13;38.22;;;13.93;;
64795;SDS011;51229;51.980;6.722;2022-12-26T01:10:40;37.08;;;12.98;;
64795;SDS011;51229;51.980;6.722;2022-12-26T01:13:07;45.22;;;14.00;;
64795;SDS011;51229;51.980;6.722;2022-12-26T01:15:33;42.38;;;13.80;;
64795;SDS011;51229;51.980;6.722;2022-12-26T01:17:58;38.50;;;12.63;;
64795;SDS011;51229;51.980;6.722;2022-12-26T01:20:25;44.55;;;14.60;;
64795;SDS011;51229;51.980;6.722;2022-12-26T01:22:51;37.88;;;13.48;;
64795;SDS011;51229;51.980;6.722;2022-12-26T01:25:17;36.60;;;12.82;;
64795;SDS011;51229;51.980;6.722;2022-12-26T01:27:43;31.35;;;12.05;;
64795;SDS011;51229;51.980;6.722;2022-12-26T01:30:09;42.20;;;14.88;;
64795;SDS011;51229;51.980;6.722;2022-12-26T01:32:35;40.03;;;14.70;;
64795;SDS011;51229;51.980;6.722;2022-12-26T01:35:01;37.88;;;13.93;;
64795;SDS011;51229;51.980;6.722;2022-12-26T01:37:27;49.28;;;14.93;;
64795;SDS011;51229;51.980;6.722;2022-12-26T01:39:52;39.35;;;14.02;;
64795;SDS011;51229;51.980;6.722;2022-12-26T01:42:19;42.03;;;13.48;;
64795;SDS011;51229;51.980;6.722;2022-12-26T01:53:28;45.13;;;15.02;;
64795;SDS011;51229;51.980;6.722;2022-12-26T01:56:03;36.80;;;13.32;;
64795;SDS011;51229;51.980;6.722;2022-12-26T01:58:41;49.47;;;14.95;;
64795;SDS011;51229;51.980;6.722;2022-12-26T02:01:11;40.72;;;13.93;;
64795;SDS011;51229;51.980;6.722;2022-12-26T02:03:38;41.67;;;14.70;;
64795;SDS011;51229;51.980;6.722;2022-12-26T02:06:26;41.40;;;15.10;;
64795;SDS011;51229;51.980;6.722;2022-12-26T02:08:52;41.17;;;14.60;;
64795;SDS011;51229;51.980;6.722;2022-12-26T02:11:22;39.13;;;14.10;;
64795;SDS011;51229;51.980;6.722;2022-12-26T02:13:51;37.75;;;13.07;;
64795;SDS011;51229;51.980;6.722;2022-12-26T02:16:17;35.50;;;12.07;;
64795;SDS011;51229;51.980;6.722;2022-12-26T02:18:44;43.83;;;14.35;;
64795;SDS011;51229;51.980;6.722;2022-12-26T02:41:31;33.63;;;12.27;;
64795;SDS011;51229;51.980;6.722;2022-12-26T02:49:24;43.60;;;14.85;;
64795;SDS011;51229;51.980;6.722;2022-12-26T02:52:20;41.38;;;15.20;;
64795;SDS011;51229;51.980;6.722;2022-12-26T02:55:19;40.08;;;15.32;;
64795;SDS011;51229;51.980;6.722;2022-12-26T02:58:18;37.38;;;14.00;;
64795;SDS011;51229;51.980;6.722;2022-12-26T03:01:07;29.88;;;11.90;;
64795;SDS011;51229;51.980;6.722;2022-12-26T03:04:09;34.17;;;13.32;;
64795;SDS011;51229;51.980;6.722;2022-12-26T03:06:57;32.03;;;14.25;;
64795;SDS011;51229;51.980;6.722;2022-12-26T03:09:44;27.88;;;12.77;;
64795;SDS011;51229;51.980;6.722;2022-12-26T03:12:35;28.02;;;12.10;;
64795;SDS011;51229;51.980;6.722;2022-12-26T03:15:28;29.13;;;11.88;;
64795;SDS011;51229;51.980;6.722;2022-12-26T03:18:19;34.92;;;12.90;;
64795;SDS011;51229;51.980;6.722;2022-12-26T03:20:47;18.77;;;8.25;;
64795;SDS011;51229;51.980;6.722;2022-12-26T03:23:14;30.13;;;12.48;;
64795;SDS011;51229;51.980;6.722;2022-12-26T03:25:52;27.42;;;11.48;;
64795;SDS011;51229;51.980;6.722;2022-12-26T03:28:39;30.25;;;12.73;;
64795;SDS011;51229;51.980;6.722;2022-12-26T03:31:06;35.92;;;13.48;;
64795;SDS011;51229;51.980;6.722;2022-12-26T03:33:36;30.30;;;12.88;;
64795;SDS011;51229;51.980;6.722;2022-12-26T03:42:37;29.58;;;12.20;;
64795;SDS011;51229;51.980;6.722;2022-12-26T03:48:30;30.83;;;12.43;;
64795;SDS011;51229;51.980;6.722;2022-12-26T03:51:24;30.38;;;11.63;;
64795;SDS011;51229;51.980;6.722;2022-12-26T03:54:20;31.73;;;13.50;;
64795;SDS011;51229;51.980;6.722;2022-12-26T03:57:28;34.47;;;14.45;;
64795;SDS011;51229;51.980;6.722;2022-12-26T04:00:18;35.70;;;14.18;;
64795;SDS011;51229;51.980;6.722;2022-12-26T04:03:04;31.85;;;13.38;;
64795;SDS011;51229;51.980;6.722;2022-12-26T04:05:52;35.00;;;14.63;;
64795;SDS011;51229;51.980;6.722;2022-12-26T04:08:45;38.08;;;16.73;;
64795;SDS011;51229;51.980;6.722;2022-12-26T04:11:40;35.72;;;15.23;;
64795;SDS011;51229;51.980;6.722;2022-12-26T04:14:34;36.70;;;16.08;;
64795;SDS011;51229;51.980;6.722;2022-12-26T04:17:41;32.83;;;14.70;;
64795;SDS011;51229;51.980;6.722;2022-12-26T04:20:39;33.60;;;14.45;;
64795;SDS011;51229;51.980;6.722;2022-12-26T04:23:11;31.98;;;15.13;;
64795;SDS011;51229;51.980;6.722;2022-12-26T04:26:21;35.13;;;16.50;;
64795;SDS011;51229;51.980;6.722;2022-12-26T04:29:06;29.50;;;13.00;;
64795;SDS011;51229;51.980;6.722;2022-12-26T04:31:52;29.85;;;14.30;;
64795;SDS011;51229;51.980;6.722;2022-12-26T04:34:45;37.58;;;16.67;;
64795;SDS011;51229;51.980;6.722;2022-12-26T04:37:37;38.75;;;17.17;;
64795;SDS011;51229;51.980;6.722;2022-12-26T04:40:26;36.50;;;16.15;;
64795;SDS011;51229;51.980;6.722;2022-12-26T04:43:14;40.10;;;16.88;;
64795;SDS011;51229;51.980;6.722;2022-12-26T04:46:00;39.38;;;17.05;;
64795;SDS011;51229;51.980;6.722;2022-12-26T04:48:26;40.00;;;17.63;;
64795;SDS011;51229;51.980;6.722;2022-12-26T04:51:11;36.55;;;15.80;;
64795;SDS011;51229;51.980;6.722;2022-12-26T04:53:36;41.50;;;17.17;;
64795;SDS011;51229;51.980;6.722;2022-12-26T04:56:02;38.72;;;16.58;;
64795;SDS011;51229;51.980;6.722;2022-12-26T04:58:28;37.13;;;16.80;;
64795;SDS011;51229;51.980;6.722;2022-12-26T05:00:54;36.35;;;16.17;;
64795;SDS011;51229;51.980;6.722;2022-12-26T05:03:42;38.20;;;16.35;;
64795;SDS011;51229;51.980;6.722;2022-12-26T05:06:26;33.38;;;14.38;;
64795;SDS011;51229;51.980;6.722;2022-12-26T05:09:10;33.53;;;14.73;;
64795;SDS011;51229;51.980;6.722;2022-12-26T05:12:01;32.92;;;15.50;;
64795;SDS011;51229;51.980;6.722;2022-12-26T05:14:28;34.38;;;16.17;;
64795;SDS011;51229;51.980;6.722;2022-12-26T05:16:56;33.10;;;15.90;;
64795;SDS011;51229;51.980;6.722;2022-12-26T05:19:43;29.95;;;14.18;;
64795;SDS011;51229;51.980;6.722;2022-12-26T05:22:28;28.60;;;13.10;;
64795;SDS011;51229;51.980;6.722;2022-12-26T05:25:16;25.10;;;13.38;;
64795;SDS011;51229;51.980;6.722;2022-12-26T05:28:07;23.65;;;12.02;;
64795;SDS011;51229;51.980;6.722;2022-12-26T05:30:53;22.30;;;12.40;;
64795;SDS011;51229;51.980;6.722;2022-12-26T05:33:19;24.10;;;12.48;;
64795;SDS011;51229;51.980;6.722;2022-12-26T05:36:03;24.38;;;12.60;;
64795;SDS011;51229;51.980;6.722;2022-12-26T05:38:29;26.67;;;12.70;;
64795;SDS011;51229;51.980;6.722;2022-12-26T05:40:55;23.05;;;11.25;;
64795;SDS011;51229;51.980;6.722;2022-12-26T05:43:20;22.40;;;12.02;;
64795;SDS011;51229;51.980;6.722;2022-12-26T05:45:46;18.55;;;10.30;;
64795;SDS011;51229;51.980;6.722;2022-12-26T05:48:12;22.50;;;11.38;;
64795;SDS011;51229;51.980;6.722;2022-12-26T05:50:38;17.58;;;8.88;;
64795;SDS011;51229;51.980;6.722;2022-12-26T05:53:03;21.27;;;10.73;;
64795;SDS011;51229;51.980;6.722;2022-12-26T05:55:29;19.45;;;10.55;;
64795;SDS011;51229;51.980;6.722;2022-12-26T05:57:55;20.30;;;10.45;;
64795;SDS011;51229;51.980;6.722;2022-12-26T06:00:21;20.25;;;10.60;;
64795;SDS011;51229;51.980;6.722;2022-12-26T06:02:47;18.67;;;9.60;;
64795;SDS011;51229;51.980;6.722;2022-12-26T06:05:13;18.92;;;9.90;;
64795;SDS011;51229;51.980;6.722;2022-12-26T06:07:38;17.67;;;10.07;;
64795;SDS011;51229;51.980;6.722;2022-12-26T06:10:04;16.63;;;9.68;;
64795;SDS011;51229;51.980;6.722;2022-12-26T06:12:30;17.05;;;9.35;;
64795;SDS011;51229;51.980;6.722;2022-12-26T06:14:57;18.30;;;9.52;;
64795;SDS011;51229;51.980;6.722;2022-12-26T06:17:23;16.45;;;8.82;;
64795;SDS011;51229;51.980;6.722;2022-12-26T06:19:48;14.77;;;8.35;;
64795;SDS011;51229;51.980;6.722;2022-12-26T06:22:14;17.30;;;8.35;;
64795;SDS011;51229;51.980;6.722;2022-12-26T06:24:40;14.27;;;8.55;;
64795;SDS011;51229;51.980;6.722;2022-12-26T06:27:06;15.18;;;8.77;;
64795;SDS011;51229;51.980;6.722;2022-12-26T06:29:31;17.70;;;9.32;;
64795;SDS011;51229;51.980;6.722;2022-12-26T06:31:57;13.68;;;7.65;;
64795;SDS011;51229;51.980;6.722;2022-12-26T06:34:24;15.45;;;8.77;;
64795;SDS011;51229;51.980;6.722;2022-12-26T06:36:51;16.70;;;8.52;;
64795;SDS011;51229;51.980;6.722;2022-12-26T06:39:17;13.52;;;8.05;;
64795;SDS011;51229;51.980;6.722;2022-12-26T06:41:42;15.80;;;8.00;;
64795;SDS011;51229;51.980;6.722;2022-12-26T06:44:08;13.20;;;7.70;;
64795;SDS011;51229;51.980;6.722;2022-12-26T06:46:34;15.75;;;8.00;;
64795;SDS011;51229;51.980;6.722;2022-12-26T06:49:00;13.43;;;7.07;;
64795;SDS011;51229;51.980;6.722;2022-12-26T06:51:26;12.18;;;6.53;;
64795;SDS011;51229;51.980;6.722;2022-12-26T06:53:54;12.40;;;7.07;;
64795;SDS011;51229;51.980;6.722;2022-12-26T06:56:21;11.57;;;6.40;;
64795;SDS011;51229;51.980;6.722;2022-12-26T06:58:55;10.43;;;6.32;;
64795;SDS011;51229;51.980;6.722;2022-12-26T07:01:23;10.65;;;5.25;;
64795;SDS011;51229;51.980;6.722;2022-12-26T07:03:50;12.15;;;6.25;;
64795;SDS011;51229;51.980;6.722;2022-12-26T07:06:21;12.27;;;7.00;;
64795;SDS011;51229;51.980;6.722;2022-12-26T07:08:54;10.82;;;6.50;;
64795;SDS011;51229;51.980;6.722;2022-12-26T07:11:26;11.88;;;6.32;;
64795;SDS011;51229;51.980;6.722;2022-12-26T07:13:53;9.88;;;5.68;;
64795;SDS011;51229;51.980;6.722;2022-12-26T07:16:19;12.27;;;6.35;;
64795;SDS011;51229;51.980;6.722;2022-12-26T07:18:46;10.98;;;6.15;;
64795;SDS011;51229;51.980;6.722;2022-12-26T07:21:13;11.80;;;6.60;;
64795;SDS011;51229;51.980;6.722;2022-12-26T07:23:40;11.50;;;7.10;;
64795;SDS011;51229;51.980;6.722;2022-12-26T07:26:06;11.10;;;6.40;;
64795;SDS011;51229;51.980;6.722;2022-12-26T07:28:32;10.65;;;6.22;;
64795;SDS011;51229;51.980;6.722;2022-12-26T07:30:58;13.27;;;6.80;;
64795;SDS011;51229;51.980;6.722;2022-12-26T07:33:24;12.00;;;6.20;;
64795;SDS011;51229;51.980;6.722;2022-12-26T07:35:51;12.82;;;6.88;;
64795;SDS011;51229;51.980;6.722;2022-12-26T07:38:16;12.95;;;6.85;;
64795;SDS011;51229;51.980;6.722;2022-12-26T07:40:42;12.73;;;6.80;;
64795;SDS011;51229;51.980;6.722;2022-12-26T07:43:08;12.80;;;6.43;;
64795;SDS011;51229;51.980;6.722;2022-12-26T07:45:33;10.98;;;6.13;;
64795;SDS011;51229;51.980;6.722;2022-12-26T07:47:59;10.75;;;6.10;;
64795;SDS011;51229;51.980;6.722;2022-12-26T07:50:25;12.25;;;6.25;;
64795;SDS011;51229;51.980;6.722;2022-12-26T07:52:51;12.38;;;6.13;;
64795;SDS011;51229;51.980;6.722;2022-12-26T07:55:17;13.88;;;6.13;;
64795;SDS011;51229;51.980;6.722;2022-12-26T07:57:43;13.77;;;6.20;;
64795;SDS011;51229;51.980;6.722;2022-12-26T08:00:13;13.23;;;6.45;;
64795;SDS011;51229;51.980;6.722;2022-12-26T08:02:39;9.48;;;5.35;;
64795;SDS011;51229;51.980;6.722;2022-12-26T08:05:05;11.68;;;5.65;;
64795;SDS011;51229;51.980;6.722;2022-12-26T08:07:31;10.90;;;5.85;;
64795;SDS011;51229;51.980;6.722;2022-12-26T08:09:56;13.68;;;6.05;;
64795;SDS011;51229;51.980;6.722;2022-12-26T08:12:22;9.35;;;4.85;;
64795;SDS011;51229;51.980;6.722;2022-12-26T08:14:48;10.77;;;6.05;;
64795;SDS011;51229;51.980;6.722;2022-12-26T08:17:15;8.68;;;4.53;;
64795;SDS011;51229;51.980;6.722;2022-12-26T08:19:41;10.90;;;6.10;;
64795;SDS011;51229;51.980;6.722;2022-12-26T08:22:06;10.95;;;5.85;;
64795;SDS011;51229;51.980;6.722;2022-12-26T08:24:32;11.10;;;5.88;;
64795;SDS011;51229;51.980;6.722;2022-12-26T08:26:58;10.75;;;5.55;;
64795;SDS011;51229;51.980;6.722;2022-12-26T08:29:24;10.85;;;5.72;;
64795;SDS011;51229;51.980;6.722;2022-12-26T08:31:49;10.98;;;5.10;;
64795;SDS011;51229;51.980;6.722;2022-12-26T08:34:15;10.98;;;5.75;;
64795;SDS011;51229;51.980;6.722;2022-12-26T08:36:41;8.57;;;4.82;;
64795;SDS011;51229;51.980;6.722;2022-12-26T08:39:07;10.50;;;5.60;;
64795;SDS011;51229;51.980;6.722;2022-12-26T08:41:32;10.63;;;5.70;;
64795;SDS011;51229;51.980;6.722;2022-12-26T08:43:58;9.68;;;6.10;;
64795;SDS011;51229;51.980;6.722;2022-12-26T08:46:24;12.23;;;5.63;;
64795;SDS011;51229;51.980;6.722;2022-12-26T08:48:50;10.50;;;5.90;;
64795;SDS011;51229;51.980;6.722;2022-12-26T08:51:20;11.32;;;6.45;;
64795;SDS011;51229;51.980;6.722;2022-12-26T08:53:48;10.45;;;5.60;;
64795;SDS011;51229;51.980;6.722;2022-12-26T08:56:16;11.25;;;5.32;;
64795;SDS011;51229;51.980;6.722;2022-12-26T08:58:44;7.95;;;4.50;;
64795;SDS011;51229;51.980;6.722;2022-12-26T09:01:14;10.00;;;6.03;;
64795;SDS011;51229;51.980;6.722;2022-12-26T09:03:45;11.65;;;5.82;;
64795;SDS011;51229;51.980;6.722;2022-12-26T09:06:24;9.13;;;5.78;;
64795;SDS011;51229;51.980;6.722;2022-12-26T09:08:54;8.73;;;5.20;;
64795;SDS011;51229;51.980;6.722;2022-12-26T09:11:21;9.60;;;4.93;;
64795;SDS011;51229;51.980;6.722;2022-12-26T09:13:50;9.77;;;5.10;;
64795;SDS011;51229;51.980;6.722;2022-12-26T09:16:20;9.27;;;4.75;;
64795;SDS011;51229;51.980;6.722;2022-12-26T09:18:51;9.10;;;5.13;;
64795;SDS011;51229;51.980;6.722;2022-12-26T09:21:19;8.30;;;4.97;;
64795;SDS011;51229;51.980;6.722;2022-12-26T09:23:57;9.13;;;5.15;;
64795;SDS011;51229;51.980;6.722;2022-12-26T09:26:28;7.53;;;4.88;;
64795;SDS011;51229;51.980;6.722;2022-12-26T09:29:01;7.80;;;4.78;;
64795;SDS011;51229;51.980;6.722;2022-12-26T09:31:42;6.55;;;3.83;;
64795;SDS011;51229;51.980;6.722;2022-12-26T09:34:09;7.13;;;4.32;;
64795;SDS011;51229;51.980;6.722;2022-12-26T09:36:35;7.25;;;3.35;;
64795;SDS011;51229;51.980;6.722;2022-12-26T09:39:02;8.40;;;4.75;;
64795;SDS011;51229;51.980;6.722;2022-12-26T09:47:30;8.38;;;4.03;;
64795;SDS011;51229;51.980;6.722;2022-12-26T09:52:47;8.18;;;4.15;;
64795;SDS011;51229;51.980;6.722;2022-12-26T09:55:26;6.88;;;4.10;;
64795;SDS011;51229;51.980;6.722;2022-12-26T09:58:10;8.55;;;3.97;;
64795;SDS011;51229;51.980;6.722;2022-12-26T10:01:03;6.78;;;3.65;;
64795;SDS011;51229;51.980;6.722;2022-12-26T10:03:48;6.45;;;3.67;;
64795;SDS011;51229;51.980;6.722;2022-12-26T10:11:31;6.20;;;3.65;;
64795;SDS011;51229;51.980;6.722;2022-12-26T10:16:49;6.47;;;3.40;;
64795;SDS011;51229;51.980;6.722;2022-12-26T10:27:42;5.68;;;3.55;;
64795;SDS011;51229;51.980;6.722;2022-12-26T10:30:19;7.38;;;4.07;;
64795;SDS011;51229;51.980;6.722;2022-12-26T10:32:49;8.30;;;3.28;;
64795;SDS011;51229;51.980;6.722;2022-12-26T10:35:21;6.88;;;3.22;;
64795;SDS011;51229;51.980;6.722;2022-12-26T10:37:48;8.43;;;3.78;;
64795;SDS011;51229;51.980;6.722;2022-12-26T10:43:37;7.13;;;3.20;;
64795;SDS011;51229;51.980;6.722;2022-12-26T10:45:46;5.72;;;3.55;;
64795;SDS011;51229;51.980;6.722;2022-12-26T10:48:17;8.77;;;3.50;;
64795;SDS011;51229;51.980;6.722;2022-12-26T10:50:44;4.72;;;2.55;;
64795;SDS011;51229;51.980;6.722;2022-12-26T10:53:12;6.40;;;2.92;;
64795;SDS011;51229;51.980;6.722;2022-12-26T10:55:39;6.25;;;2.88;;
64795;SDS011;51229;51.980;6.722;2022-12-26T10:58:17;7.70;;;3.20;;
64795;SDS011;51229;51.980;6.722;2022-12-26T11:00:54;8.70;;;2.72;;
64795;SDS011;51229;51.980;6.722;2022-12-26T11:03:20;6.57;;;2.70;;
64795;SDS011;51229;51.980;6.722;2022-12-26T11:05:50;7.32;;;2.85;;
64795;SDS011;51229;51.980;6.722;2022-12-26T11:10:46;6.28;;;2.90;;
64795;SDS011;51229;51.980;6.722;2022-12-26T11:13:46;8.50;;;3.20;;
64795;SDS011;51229;51.980;6.722;2022-12-26T11:16:30;6.60;;;3.15;;
64795;SDS011;51229;51.980;6.722;2022-12-26T11:19:02;6.97;;;2.70;;
64795;SDS011;51229;51.980;6.722;2022-12-26T11:21:29;8.05;;;3.22;;
64795;SDS011;51229;51.980;6.722;2022-12-26T11:26:33;6.18;;;2.50;;
64795;SDS011;51229;51.980;6.722;2022-12-26T11:29:10;5.60;;;2.75;;
64795;SDS011;51229;51.980;6.722;2022-12-26T11:31:48;7.45;;;3.00;;
64795;SDS011;51229;51.980;6.722;2022-12-26T11:34:24;4.57;;;2.55;;
64795;SDS011;51229;51.980;6.722;2022-12-26T11:36:58;4.35;;;2.13;;
64795;SDS011;51229;51.980;6.722;2022-12-26T11:39:25;5.53;;;2.28;;
64795;SDS011;51229;51.980;6.722;2022-12-26T11:41:54;7.22;;;2.45;;
64795;SDS011;51229;51.980;6.722;2022-12-26T11:44:25;6.68;;;2.53;;
64795;SDS011;51229;51.980;6.722;2022-12-26T11:47:06;9.45;;;3.25;;
64795;SDS011;51229;51.980;6.722;2022-12-26T11:49:39;8.95;;;2.63;;
64795;SDS011;51229;51.980;6.722;2022-12-26T11:54:55;5.32;;;2.53;;
64795;SDS011;51229;51.980;6.722;2022-12-26T11:57:21;5.53;;;2.53;;
64795;SDS011;51229;51.980;6.722;2022-12-26T12:00:13;11.23;;;3.67;;
64795;SDS011;51229;51.980;6.722;2022-12-26T12:02:46;5.88;;;1.80;;
64795;SDS011;51229;51.980;6.722;2022-12-26T12:05:30;6.63;;;2.08;;
64795;SDS011;51229;51.980;6.722;2022-12-26T12:11:24;6.97;;;2.10;;
64795;SDS011;51229;51.980;6.722;2022-12-26T12:13:50;7.47;;;2.30;;
64795;SDS011;51229;51.980;6.722;2022-12-26T12:19:24;7.18;;;1.70;;
64795;SDS011;51229;51.980;6.722;2022-12-26T12:24:47;10.93;;;1.73;;
64795;SDS011;51229;51.980;6.722;2022-12-26T12:27:49;6.78;;;2.10;;
64795;SDS011;51229;51.980;6.722;2022-12-26T12:30:42;9.70;;;2.15;;
64795;SDS011;51229;51.980;6.722;2022-12-26T12:33:28;7.32;;;2.13;;
64795;SDS011;51229;51.980;6.722;2022-12-26T12:36:28;6.38;;;2.25;;
64795;SDS011;51229;51.980;6.722;2022-12-26T12:47:36;8.35;;;1.92;;
64795;SDS011;51229;51.980;6.722;2022-12-26T12:50:20;4.57;;;1.80;;
64795;SDS011;51229;51.980;6.722;2022-12-26T12:58:31;5.88;;;2.05;;
64795;SDS011;51229;51.980;6.722;2022-12-26T13:01:09;7.75;;;1.98;;
64795;SDS011;51229;51.980;6.722;2022-12-26T13:03:53;9.07;;;1.77;;
64795;SDS011;51229;51.980;6.722;2022-12-26T13:06:33;6.22;;;1.88;;
64795;SDS011;51229;51.980;6.722;2022-12-26T13:09:06;8.52;;;2.00;;
64795;SDS011;51229;51.980;6.722;2022-12-26T13:11:59;6.72;;;1.90;;
64795;SDS011;51229;51.980;6.722;2022-12-26T13:14:29;5.88;;;2.10;;
64795;SDS011;51229;51.980;6.722;2022-12-26T13:17:07;6.10;;;2.40;;
64795;SDS011;51229;51.980;6.722;2022-12-26T13:22:36;8.45;;;1.98;;
64795;SDS011;51229;51.980;6.722;2022-12-26T13:25:38;4.88;;;2.05;;
64795;SDS011;51229;51.980;6.722;2022-12-26T13:28:14;6.07;;;1.90;;
64795;SDS011;51229;51.980;6.722;2022-12-26T13:30:45;5.90;;;2.00;;
64795;SDS011;51229;51.980;6.722;2022-12-26T13:33:17;5.82;;;2.03;;
64795;SDS011;51229;51.980;6.722;2022-12-26T13:35:59;8.13;;;1.77;;
64795;SDS011;51229;51.980;6.722;2022-12-26T13:44:05;5.55;;;1.48;;
64795;SDS011;51229;51.980;6.722;2022-12-26T13:54:35;4.93;;;2.10;;
64795;SDS011;51229;51.980;6.722;2022-12-26T13:57:12;5.68;;;1.50;;
64795;SDS011;51229;51.980;6.722;2022-12-26T14:11:36;7.38;;;1.90;;
64795;SDS011;51229;51.980;6.722;2022-12-26T14:22:58;5.90;;;1.73;;
64795;SDS011;51229;51.980;6.722;2022-12-26T14:25:39;6.07;;;1.45;;
64795;SDS011;51229;51.980;6.722;2022-12-26T14:29:01;4.90;;;1.50;;
64795;SDS011;51229;51.980;6.722;2022-12-26T14:31:58;5.18;;;1.60;;
64795;SDS011;51229;51.980;6.722;2022-12-26T14:34:46;5.63;;;1.70;;
64795;SDS011;51229;51.980;6.722;2022-12-26T14:40:29;6.68;;;1.60;;
64795;SDS011;51229;51.980;6.722;2022-12-26T14:50:44;4.88;;;1.63;;
64795;SDS011;51229;51.980;6.722;2022-12-26T14:55:53;6.30;;;1.60;;
64795;SDS011;51229;51.980;6.722;2022-12-26T14:58:29;7.20;;;1.65;;
64795;SDS011;51229;51.980;6.722;2022-12-26T15:01:42;4.45;;;1.60;;
64795;SDS011;51229;51.980;6.722;2022-12-26T15:06:46;8.60;;;2.20;;
64795;SDS011;51229;51.980;6.722;2022-12-26T15:40:19;7.00;;;2.50;;
64795;SDS011;51229;51.980;6.722;2022-12-26T15:43:04;4.95;;;1.90;;
64795;SDS011;51229;51.980;6.722;2022-12-26T15:46:07;8.93;;;2.47;;
64795;SDS011;51229;51.980;6.722;2022-12-26T15:49:04;5.13;;;1.90;;
64795;SDS011;51229;51.980;6.722;2022-12-26T15:57:29;6.55;;;2.13;;
64795;SDS011;51229;51.980;6.722;2022-12-26T16:00:15;7.35;;;2.35;;
64795;SDS011;51229;51.980;6.722;2022-12-26T16:08:24;5.10;;;2.05;;
64795;SDS011;51229;51.980;6.722;2022-12-26T16:11:14;7.93;;;2.42;;
64795;SDS011;51229;51.980;6.722;2022-12-26T16:16:26;5.95;;;1.90;;
64795;SDS011;51229;51.980;6.722;2022-12-26T16:18:55;6.35;;;2.20;;
64795;SDS011;51229;51.980;6.722;2022-12-26T16:21:23;6.75;;;2.50;;
64795;SDS011;51229;51.980;6.722;2022-12-26T16:24:10;8.25;;;3.53;;
64795;SDS011;51229;51.980;6.722;2022-12-26T16:26:39;6.10;;;2.45;;
64795;SDS011;51229;51.980;6.722;2022-12-26T16:29:07;8.15;;;2.97;;
64795;SDS011;51229;51.980;6.722;2022-12-26T16:31:39;10.48;;;2.88;;
64795;SDS011;51229;51.980;6.722;2022-12-26T16:34:04;8.73;;;2.50;;
64795;SDS011;51229;51.980;6.722;2022-12-26T16:36:31;6.10;;;2.47;;
64795;SDS011;51229;51.980;6.722;2022-12-26T16:39:06;6.70;;;2.17;;
64795;SDS011;51229;51.980;6.722;2022-12-26T16:41:33;5.90;;;2.83;;
64795;SDS011;51229;51.980;6.722;2022-12-26T16:44:25;5.07;;;2.50;;
64795;SDS011;51229;51.980;6.722;2022-12-26T16:46:55;7.70;;;2.53;;
64795;SDS011;51229;51.980;6.722;2022-12-26T16:49:23;5.10;;;2.10;;
64795;SDS011;51229;51.980;6.722;2022-12-26T16:51:50;5.88;;;2.35;;
64795;SDS011;51229;51.980;6.722;2022-12-26T16:56:50;8.48;;;2.63;;
64795;SDS011;51229;51.980;6.722;2022-12-26T16:59:36;7.55;;;2.92;;
64795;SDS011;51229;51.980;6.722;2022-12-26T17:02:12;8.90;;;2.97;;
64795;SDS011;51229;51.980;6.722;2022-12-26T17:05:00;8.57;;;3.22;;
64795;SDS011;51229;51.980;6.722;2022-12-26T17:07:30;6.75;;;2.50;;
64795;SDS011;51229;51.980;6.722;2022-12-26T17:09:58;8.13;;;2.30;;
64795;SDS011;51229;51.980;6.722;2022-12-26T17:12:34;7.40;;;2.53;;
64795;SDS011;51229;51.980;6.722;2022-12-26T17:15:02;6.40;;;2.60;;
64795;SDS011;51229;51.980;6.722;2022-12-26T17:17:34;6.75;;;2.55;;
64795;SDS011;51229;51.980;6.722;2022-12-26T17:22:53;10.05;;;3.08;;
64795;SDS011;51229;51.980;6.722;2022-12-26T17:25:30;8.60;;;2.70;;
64795;SDS011;51229;51.980;6.722;2022-12-26T17:30:32;8.85;;;3.10;;
64795;SDS011;51229;51.980;6.722;2022-12-26T17:33:25;7.28;;;2.75;;
64795;SDS011;51229;51.980;6.722;2022-12-26T17:35:56;7.35;;;2.05;;
64795;SDS011;51229;51.980;6.722;2022-12-26T17:38:27;7.05;;;2.45;;
64795;SDS011;51229;51.980;6.722;2022-12-26T17:40:54;12.10;;;2.67;;
64795;SDS011;51229;51.980;6.722;2022-12-26T17:43:23;8.23;;;2.72;;
64795;SDS011;51229;51.980;6.722;2022-12-26T17:45:54;9.60;;;2.65;;
64795;SDS011;51229;51.980;6.722;2022-12-26T17:48:20;7.07;;;2.67;;
64795;SDS011;51229;51.980;6.722;2022-12-26T17:50:47;6.78;;;2.50;;
64795;SDS011;51229;51.980;6.722;2022-12-26T17:53:22;8.43;;;2.80;;
64795;SDS011;51229;51.980;6.722;2022-12-26T17:56:06;9.13;;;2.30;;
64795;SDS011;51229;51.980;6.722;2022-12-26T17:58:37;7.00;;;2.65;;
64795;SDS011;51229;51.980;6.722;2022-12-26T18:01:03;8.18;;;2.80;;
64795;SDS011;51229;51.980;6.722;2022-12-26T18:03:29;8.77;;;2.50;;
64795;SDS011;51229;51.980;6.722;2022-12-26T18:05:55;5.78;;;2.53;;
64795;SDS011;51229;51.980;6.722;2022-12-26T18:08:31;5.85;;;2.30;;
64795;SDS011;51229;51.980;6.722;2022-12-26T18:10:58;4.43;;;1.95;;
64795;SDS011;51229;51.980;6.722;2022-12-26T18:13:26;7.93;;;2.60;;
64795;SDS011;51229;51.980;6.722;2022-12-26T18:15:52;8.98;;;3.10;;
64795;SDS011;51229;51.980;6.722;2022-12-26T18:20:57;6.30;;;2.50;;
64795;SDS011;51229;51.980;6.722;2022-12-26T18:23:23;8.43;;;3.05;;
64795;SDS011;51229;51.980;6.722;2022-12-26T18:25:49;10.57;;;2.97;;
64795;SDS011;51229;51.980;6.722;2022-12-26T18:28:15;5.65;;;2.60;;
64795;SDS011;51229;51.980;6.722;2022-12-26T18:30:42;9.55;;;3.22;;
64795;SDS011;51229;51.980;6.722;2022-12-26T18:33:09;6.30;;;2.90;;
64795;SDS011;51229;51.980;6.722;2022-12-26T18:35:37;6.50;;;2.67;;
64795;SDS011;51229;51.980;6.722;2022-12-26T18:38:04;6.28;;;2.33;;
64795;SDS011;51229;51.980;6.722;2022-12-26T18:40:40;9.65;;;3.30;;
64795;SDS011;51229;51.980;6.722;2022-12-26T18:43:08;8.00;;;2.88;;
64795;SDS011;51229;51.980;6.722;2022-12-26T18:45:34;5.82;;;2.95;;